Time;durP1;ratioP1;P1;durP2;ratioP2;P2;SDS_P1;SDS_P2;PMS_P1;PMS_P2;Temp;Humidity;BMP_temperature;BMP_pressure;BME280_temperature;BME280_humidity;BME280_pressure;Samples;Min_cycle;Max_cycle;Signal;HPM_P1;HPM_P2
2023/12/01 00:00:20;;;;;;;4.90;4.57;;;;;;;;;;5029904;28;20140;-78
2023/12/01 00:02:46;;;;;;;0.20;0.20;;;;;;;;;;5045335;28;20049;-77
2023/12/01 00:05:13;;;;;;;0.10;0.10;;;;;;;;;;5047828;28;20060;-77
2023/12/01 00:07:39;;;;;;;0.10;0.10;;;;;;;;;;5029033;28;20057;-77
2023/12/01 00:10:10;;;;;;;0.10;0.10;;;;;;;;;;5023858;28;20321;-77
2023/12/01 00:12:36;;;;;;;;;;;;;;;;;;5035121;28;20061;-77
2023/12/01 00:15:04;;;;;;;0.00;0.00;;;;;;;;;;5045716;28;48188;-77
2023/12/01 00:17:30;;;;;;;0.10;0.10;;;;;;;;;;5046591;28;20057;-77
2023/12/01 00:19:56;;;;;;;0.10;0.10;;;;;;;;;;5046098;28;20053;-77
2023/12/01 00:22:23;;;;;;;0.03;0.03;;;;;;;;;;5046016;28;20419;-77
2023/12/01 00:24:49;;;;;;;0.10;0.10;;;;;;;;;;5045956;28;20061;-77
2023/12/01 00:27:16;;;;;;;0.10;0.10;;;;;;;;;;5043335;28;20577;-77
2023/12/01 00:29:43;;;;;;;0.00;0.00;;;;;;;;;;5030118;28;24198;-77
2023/12/01 00:32:09;;;;;;;0.10;0.10;;;;;;;;;;5046940;28;20054;-77
2023/12/01 00:34:35;;;;;;;0.10;0.10;;;;;;;;;;5041010;28;20053;-77
2023/12/01 00:37:02;;;;;;;0.10;0.10;;;;;;;;;;5046873;28;20503;-77
2023/12/01 00:39:29;;;;;;;0.10;0.10;;;;;;;;;;5029592;28;20064;-77
2023/12/01 00:41:55;;;;;;;0.00;0.00;;;;;;;;;;5045818;28;20566;-77
2023/12/01 00:44:22;;;;;;;0.10;0.10;;;;;;;;;;5045830;28;20057;-76
2023/12/01 00:46:48;;;;;;;0.10;0.10;;;;;;;;;;5041684;28;20068;-78
2023/12/01 00:49:14;;;;;;;0.00;0.00;;;;;;;;;;5045689;28;20132;-78
2023/12/01 00:51:43;;;;;;;0.10;0.10;;;;;;;;;;5028515;28;20057;-77
2023/12/01 00:54:10;;;;;;;0.10;0.10;;;;;;;;;;5047184;28;20049;-78
2023/12/01 00:56:37;;;;;;;0.10;0.10;;;;;;;;;;5040762;28;20054;-76
2023/12/01 00:59:03;;;;;;;0.03;0.03;;;;;;;;;;5045623;28;20618;-77
2023/12/01 01:01:30;;;;;;;0.05;0.05;;;;;;;;;;5028738;28;20065;-78
2023/12/01 01:03:57;;;;;;;0.00;0.00;;;;;;;;;;5050826;28;20571;-78
2023/12/01 01:06:24;;;;;;;0.35;0.35;;;;;;;;;;5027853;28;20061;-78
2023/12/01 01:08:50;;;;;;;0.10;0.10;;;;;;;;;;5046221;28;20053;-78
2023/12/01 01:11:16;;;;;;;0.00;0.00;;;;;;;;;;5029574;28;20064;-78
2023/12/01 01:13:46;;;;;;;0.10;0.10;;;;;;;;;;5046255;28;20056;-78
2023/12/01 01:16:12;;;;;;;0.10;0.10;;;;;;;;;;5045915;28;20057;-78
2023/12/01 01:18:39;;;;;;;0.10;0.10;;;;;;;;;;5045633;28;20053;-78
2023/12/01 01:21:05;;;;;;;0.10;0.10;;;;;;;;;;5045401;28;20057;-77
2023/12/01 01:23:32;;;;;;;0.00;0.00;;;;;;;;;;5045328;28;20057;-78
2023/12/01 01:25:58;;;;;;;0.10;0.10;;;;;;;;;;5045808;28;20152;-78
2023/12/01 01:28:25;;;;;;;0.10;0.10;;;;;;;;;;5021788;28;20112;-78
2023/12/01 01:30:51;;;;;;;0.85;0.85;;;;;;;;;;5040520;28;20072;-77
2023/12/01 01:33:17;;;;;;;0.10;0.10;;;;;;;;;;5044454;28;20066;-77
2023/12/01 01:35:45;;;;;;;0.03;0.03;;;;;;;;;;5046146;28;20058;-77
2023/12/01 01:38:11;;;;;;;0.10;0.10;;;;;;;;;;5024349;28;20128;-77
2023/12/01 01:40:38;;;;;;;0.05;0.05;;;;;;;;;;5046151;28;20049;-78
2023/12/01 01:43:04;;;;;;;0.10;0.10;;;;;;;;;;5046211;28;20529;-78
2023/12/01 01:45:31;;;;;;;0.13;0.13;;;;;;;;;;5028827;28;20049;-78
2023/12/01 01:47:57;;;;;;;0.10;0.10;;;;;;;;;;5038401;28;20093;-79
2023/12/01 01:50:24;;;;;;;0.10;0.10;;;;;;;;;;5038141;28;20057;-77
2023/12/01 01:52:52;;;;;;;0.00;0.00;;;;;;;;;;5047121;28;20119;-78
2023/12/01 01:55:18;;;;;;;0.10;0.10;;;;;;;;;;5023556;28;20049;-78
2023/12/01 01:57:45;;;;;;;0.10;0.10;;;;;;;;;;5043795;28;20526;-78
2023/12/01 02:00:16;;;;;;;0.10;0.10;;;;;;;;;;5022844;28;20194;-79
2023/12/01 02:02:43;;;;;;;0.10;0.10;;;;;;;;;;5044484;28;20061;-78
2023/12/01 02:05:13;;;;;;;0.10;0.10;;;;;;;;;;5043796;28;20053;-78
2023/12/01 02:07:41;;;;;;;0.10;0.10;;;;;;;;;;5046420;28;20073;-77
2023/12/01 02:10:15;;;;;;;0.10;0.10;;;;;;;;;;5029175;28;20557;-77
2023/12/01 02:12:43;;;;;;;0.10;0.10;;;;;;;;;;5029423;28;20053;-78
2023/12/01 02:15:10;;;;;;;0.10;0.10;;;;;;;;;;5039292;28;20049;-78
2023/12/01 02:17:38;;;;;;;0.10;0.10;;;;;;;;;;5045517;28;20057;-78
2023/12/01 02:20:05;;;;;;;0.10;0.10;;;;;;;;;;5027982;28;20053;-78
2023/12/01 02:22:33;;;;;;;0.10;0.10;;;;;;;;;;5049290;28;20140;-78
2023/12/01 02:24:59;;;;;;;0.10;0.10;;;;;;;;;;5049335;28;20053;-77
2023/12/01 02:27:25;;;;;;;0.10;0.10;;;;;;;;;;5033922;28;20054;-77
2023/12/01 02:29:52;;;;;;;0.03;0.03;;;;;;;;;;5048933;28;20180;-78
2023/12/01 02:32:18;;;;;;;0.10;0.10;;;;;;;;;;5047152;28;20088;-79
2023/12/01 02:34:45;;;;;;;0.10;0.10;;;;;;;;;;5030493;28;20131;-78
2023/12/01 02:37:12;;;;;;;0.10;0.10;;;;;;;;;;5043756;28;20057;-78
2023/12/01 02:39:38;;;;;;;0.10;0.10;;;;;;;;;;5048156;28;20049;-78
2023/12/01 02:42:05;;;;;;;0.10;0.10;;;;;;;;;;5048823;28;20532;-78
2023/12/01 02:44:31;;;;;;;0.10;0.10;;;;;;;;;;5031831;28;20049;-77
2023/12/01 02:46:57;;;;;;;0.17;0.17;;;;;;;;;;5031401;28;20510;-78
2023/12/01 02:49:24;;;;;;;0.40;0.40;;;;;;;;;;5044835;28;20063;-77
2023/12/01 02:51:51;;;;;;;0.10;0.10;;;;;;;;;;5031155;28;20068;-78
2023/12/01 02:54:17;;;;;;;0.10;0.10;;;;;;;;;;5044982;28;20053;-78
2023/12/01 02:56:44;;;;;;;0.10;0.10;;;;;;;;;;5046409;28;20057;-78
2023/12/01 02:59:10;;;;;;;3.17;3.03;;;;;;;;;;5041170;28;20224;-78
2023/12/01 03:01:36;;;;;;;0.10;0.10;;;;;;;;;;5036167;28;20145;-78
2023/12/01 03:04:03;;;;;;;0.10;0.10;;;;;;;;;;5041412;28;20064;-77
2023/12/01 03:06:30;;;;;;;0.10;0.10;;;;;;;;;;5046007;28;20081;-78
2023/12/01 03:08:56;;;;;;;0.10;0.10;;;;;;;;;;5047739;28;20057;-78
2023/12/01 03:11:24;;;;;;;0.10;0.10;;;;;;;;;;5046501;28;20057;-78
2023/12/01 03:13:50;;;;;;;0.10;0.10;;;;;;;;;;5046374;28;20053;-78
2023/12/01 03:16:17;;;;;;;0.10;0.10;;;;;;;;;;5043133;28;20058;-78
2023/12/01 03:18:43;;;;;;;2.17;2.08;;;;;;;;;;5042944;28;20057;-78
2023/12/01 03:21:12;;;;;;;0.10;0.10;;;;;;;;;;5046372;28;20072;-78
2023/12/01 03:23:41;;;;;;;;;;;;;;;;;;5042825;28;20526;-78
2023/12/01 03:26:08;;;;;;;0.10;0.10;;;;;;;;;;5043550;28;45973;-78
2023/12/01 03:28:34;;;;;;;0.10;0.10;;;;;;;;;;5031202;28;20057;-77
2023/12/01 03:31:01;;;;;;;0.10;0.10;;;;;;;;;;5036949;28;20582;-78
2023/12/01 03:33:27;;;;;;;0.25;0.25;;;;;;;;;;5032049;28;20080;-78
2023/12/01 03:35:54;;;;;;;0.10;0.10;;;;;;;;;;5026496;28;20518;-78
2023/12/01 03:38:21;;;;;;;0.10;0.10;;;;;;;;;;5047347;28;20132;-78
2023/12/01 03:40:48;;;;;;;0.80;0.75;;;;;;;;;;5043876;28;20136;-77
2023/12/01 03:43:14;;;;;;;0.10;0.10;;;;;;;;;;5045981;28;20176;-78
2023/12/01 03:45:41;;;;;;;0.30;0.30;;;;;;;;;;5043176;28;20115;-78
2023/12/01 03:48:07;;;;;;;0.13;0.13;;;;;;;;;;5041942;28;20145;-78
2023/12/01 03:50:34;;;;;;;0.10;0.10;;;;;;;;;;5037974;28;20100;-78
2023/12/01 03:53:00;;;;;;;0.20;0.20;;;;;;;;;;5047450;28;20054;-79
2023/12/01 03:55:26;;;;;;;0.57;0.57;;;;;;;;;;5046850;28;20061;-78
2023/12/01 03:57:53;;;;;;;0.10;0.10;;;;;;;;;;5014774;28;20503;-77
2023/12/01 04:00:21;;;;;;;0.10;0.10;;;;;;;;;;5042209;28;20049;-77
2023/12/01 04:02:48;;;;;;;0.10;0.10;;;;;;;;;;5028776;28;20589;-77
2023/12/01 04:05:17;;;;;;;0.10;0.10;;;;;;;;;;5041853;28;20057;-78
2023/12/01 04:07:50;;;;;;;0.10;0.10;;;;;;;;;;5044370;28;20115;-79
2023/12/01 04:10:19;;;;;;;0.90;0.90;;;;;;;;;;5037887;28;20050;-76
2023/12/01 04:12:45;;;;;;;0.10;0.10;;;;;;;;;;5045600;28;20053;-78
2023/12/01 04:15:13;;;;;;;0.30;0.30;;;;;;;;;;5040301;28;20089;-78
2023/12/01 04:17:42;;;;;;;0.10;0.10;;;;;;;;;;5023106;28;20057;-79
2023/12/01 04:20:20;;;;;;;0.17;0.17;;;;;;;;;;5044903;28;20533;-78
2023/12/01 04:22:48;;;;;;;0.10;0.10;;;;;;;;;;5045277;28;20053;-79
2023/12/01 04:25:14;;;;;;;0.10;0.10;;;;;;;;;;5027274;28;20065;-79
2023/12/01 04:27:41;;;;;;;0.10;0.10;;;;;;;;;;5045225;28;20077;-78
2023/12/01 04:30:14;;;;;;;0.10;0.10;;;;;;;;;;5042073;28;20064;-78
2023/12/01 04:32:41;;;;;;;0.10;0.10;;;;;;;;;;5041381;28;20061;-78
2023/12/01 04:35:07;;;;;;;0.10;0.10;;;;;;;;;;5046240;28;20527;-79
2023/12/01 04:37:34;;;;;;;0.10;0.10;;;;;;;;;;5046361;28;20064;-78
2023/12/01 04:40:00;;;;;;;0.00;0.00;;;;;;;;;;5045449;28;20056;-77
2023/12/01 04:42:27;;;;;;;0.17;0.17;;;;;;;;;;5045567;28;20145;-77
2023/12/01 04:44:53;;;;;;;0.10;0.10;;;;;;;;;;5046748;28;20061;-77
2023/12/01 04:47:21;;;;;;;0.10;0.10;;;;;;;;;;5047745;28;20065;-77
2023/12/01 04:49:47;;;;;;;0.10;0.10;;;;;;;;;;5045693;28;20064;-76
2023/12/01 04:52:13;;;;;;;0.10;0.10;;;;;;;;;;5041196;28;20128;-76
2023/12/01 04:54:40;;;;;;;0.10;0.10;;;;;;;;;;5029309;28;20450;-77
2023/12/01 04:57:06;;;;;;;0.10;0.10;;;;;;;;;;5033739;28;20083;-77
2023/12/01 04:59:33;;;;;;;2.17;2.08;;;;;;;;;;5047655;28;20053;-76
2023/12/01 05:01:59;;;;;;;0.30;0.30;;;;;;;;;;5046042;28;20049;-76
2023/12/01 05:04:26;;;;;;;0.10;0.10;;;;;;;;;;5045410;28;20057;-76
2023/12/01 05:06:52;;;;;;;0.10;0.10;;;;;;;;;;5046890;28;20053;-77
2023/12/01 05:09:21;;;;;;;0.10;0.10;;;;;;;;;;5028844;28;20531;-77
2023/12/01 05:11:48;;;;;;;0.10;0.10;;;;;;;;;;5028289;28;20132;-76
2023/12/01 05:14:16;;;;;;;0.10;0.10;;;;;;;;;;5046662;28;20053;-76
2023/12/01 05:16:43;;;;;;;6.32;5.78;;;;;;;;;;5028567;28;20049;-77
2023/12/01 05:19:10;;;;;;;0.10;0.10;;;;;;;;;;5045459;28;20468;-76
2023/12/01 05:21:37;;;;;;;0.10;0.10;;;;;;;;;;5045803;28;20053;-76
2023/12/01 05:24:03;;;;;;;0.10;0.10;;;;;;;;;;5023471;28;20104;-76
2023/12/01 05:26:30;;;;;;;0.25;0.25;;;;;;;;;;5044355;28;20092;-76
2023/12/01 05:28:56;;;;;;;0.10;0.10;;;;;;;;;;5028033;28;20061;-76
2023/12/01 05:31:23;;;;;;;0.10;0.10;;;;;;;;;;5041629;28;20061;-76
2023/12/01 05:33:50;;;;;;;0.10;0.10;;;;;;;;;;5022281;28;20061;-76
2023/12/01 05:36:30;;;;;;;0.10;0.10;;;;;;;;;;5042045;28;20063;-76
2023/12/01 05:38:57;;;;;;;0.10;0.10;;;;;;;;;;5045628;28;20165;-76
2023/12/01 05:41:23;;;;;;;0.10;0.10;;;;;;;;;;5027001;28;20092;-76
2023/12/01 05:43:50;;;;;;;0.10;0.10;;;;;;;;;;5045600;28;20571;-76
2023/12/01 05:46:17;;;;;;;0.30;0.30;;;;;;;;;;5046211;28;20855;-77
2023/12/01 05:48:44;;;;;;;0.10;0.10;;;;;;;;;;5045323;28;20049;-77
2023/12/01 05:51:12;;;;;;;0.10;0.10;;;;;;;;;;5043045;28;20089;-78
2023/12/01 05:53:38;;;;;;;0.10;0.10;;;;;;;;;;5042643;28;20053;-78
2023/12/01 05:56:05;;;;;;;0.10;0.10;;;;;;;;;;5047052;28;20152;-77
2023/12/01 05:58:31;;;;;;;0.10;0.10;;;;;;;;;;5047730;28;20052;-78
2023/12/01 06:00:58;;;;;;;0.43;0.43;;;;;;;;;;5048976;28;20496;-77
2023/12/01 06:03:26;;;;;;;0.10;0.10;;;;;;;;;;5049490;28;20526;-77
2023/12/01 06:05:52;;;;;;;0.10;0.10;;;;;;;;;;5028770;28;20871;-78
2023/12/01 06:08:19;;;;;;;5.43;4.97;;;;;;;;;;5048888;28;20137;-77
2023/12/01 06:10:45;;;;;;;0.10;0.10;;;;;;;;;;5045085;28;20065;-76
2023/12/01 06:13:11;;;;;;;0.10;0.10;;;;;;;;;;5045280;28;20049;-77
2023/12/01 06:15:38;;;;;;;0.10;0.10;;;;;;;;;;5051345;28;20124;-77
2023/12/01 06:18:05;;;;;;;0.20;0.20;;;;;;;;;;5029802;28;20100;-76
2023/12/01 06:20:31;;;;;;;0.10;0.10;;;;;;;;;;5049267;28;20124;-77
2023/12/01 06:22:59;;;;;;;0.10;0.10;;;;;;;;;;5044485;28;20511;-78
2023/12/01 06:25:30;;;;;;;0.10;0.10;;;;;;;;;;5111562;22;20149;-71
2023/12/01 06:27:57;;;;;;;;;;;;;;;;;;5049353;28;20057;-71
2023/12/01 06:30:24;;;;;;;0.10;0.10;;;;;;;;;;5037378;28;47923;-71
2023/12/01 06:32:51;;;;;;;0.10;0.10;;;;;;;;;;5048543;28;20136;-71
2023/12/01 06:35:19;;;;;;;0.10;0.10;;;;;;;;;;5045849;28;20151;-71
2023/12/01 06:37:46;;;;;;;0.10;0.10;;;;;;;;;;5049008;28;20062;-71
2023/12/01 06:40:16;;;;;;;0.10;0.10;;;;;;;;;;5042129;28;20080;-71
2023/12/01 06:42:47;;;;;;;0.10;0.10;;;;;;;;;;5041081;28;20087;-71
2023/12/01 06:45:14;;;;;;;0.10;0.10;;;;;;;;;;5047809;28;20594;-71
2023/12/01 06:47:41;;;;;;;0.10;0.10;;;;;;;;;;5046999;28;20522;-71
2023/12/01 06:50:14;;;;;;;0.10;0.10;;;;;;;;;;5047044;28;20131;-71
2023/12/01 06:52:40;;;;;;;0.10;0.10;;;;;;;;;;5048132;28;20077;-71
2023/12/01 06:55:07;;;;;;;0.10;0.10;;;;;;;;;;5044197;28;20061;-71
2023/12/01 06:57:40;;;;;;;0.10;0.10;;;;;;;;;;5045765;28;20434;-71
2023/12/01 07:00:08;;;;;;;1.00;1.00;;;;;;;;;;5052731;28;20054;-71
2023/12/01 07:02:37;;;;;;;0.10;0.10;;;;;;;;;;5044649;28;20057;-71
2023/12/01 07:05:04;;;;;;;0.10;0.10;;;;;;;;;;5046553;28;20051;-71
2023/12/01 07:07:31;;;;;;;0.10;0.10;;;;;;;;;;5046418;28;20064;-72
2023/12/01 07:09:58;;;;;;;0.10;0.10;;;;;;;;;;5045709;28;20918;-71
2023/12/01 07:12:25;;;;;;;0.05;0.05;;;;;;;;;;5045035;28;20053;-71
2023/12/01 07:14:51;;;;;;;0.10;0.10;;;;;;;;;;5045315;28;20096;-71
2023/12/01 07:17:18;;;;;;;0.10;0.10;;;;;;;;;;5047267;28;20056;-71
2023/12/01 07:19:44;;;;;;;0.10;0.10;;;;;;;;;;5047793;28;20057;-71
2023/12/01 07:22:11;;;;;;;0.00;0.00;;;;;;;;;;5044308;28;20515;-71
2023/12/01 07:24:38;;;;;;;0.10;0.10;;;;;;;;;;5046402;28;20053;-72
2023/12/01 07:27:04;;;;;;;0.10;0.10;;;;;;;;;;5044933;28;20055;-71
2023/12/01 07:29:31;;;;;;;0.10;0.10;;;;;;;;;;5045514;28;20131;-71
2023/12/01 07:31:59;;;;;;;3.90;2.92;;;;;;;;;;5040264;28;20137;-71
2023/12/01 07:34:26;;;;;;;0.13;0.13;;;;;;;;;;5045049;28;20144;-71
2023/12/01 07:36:52;;;;;;;0.10;0.10;;;;;;;;;;5044552;28;20171;-71
2023/12/01 07:39:22;;;;;;;0.10;0.10;;;;;;;;;;5046528;28;20459;-71
2023/12/01 07:41:49;;;;;;;0.10;0.10;;;;;;;;;;5046225;28;20135;-71
2023/12/01 07:44:17;;;;;;;0.10;0.10;;;;;;;;;;5048412;28;20057;-71
2023/12/01 07:46:44;;;;;;;0.10;0.10;;;;;;;;;;5044196;28;20544;-71
2023/12/01 07:49:11;;;;;;;0.10;0.10;;;;;;;;;;5043463;28;20176;-71
2023/12/01 07:51:38;;;;;;;0.10;0.10;;;;;;;;;;5041756;28;20972;-71
2023/12/01 07:54:05;;;;;;;0.10;0.10;;;;;;;;;;5044512;28;20103;-72
2023/12/01 07:56:32;;;;;;;0.10;0.10;;;;;;;;;;5043540;28;20148;-71
2023/12/01 07:58:58;;;;;;;0.10;0.10;;;;;;;;;;5044895;28;20065;-72
2023/12/01 08:01:24;;;;;;;0.10;0.10;;;;;;;;;;5042467;28;20624;-72
2023/12/01 08:03:51;;;;;;;0.10;0.10;;;;;;;;;;5039612;28;20065;-72
2023/12/01 08:06:18;;;;;;;0.10;0.10;;;;;;;;;;5038842;28;20056;-72
2023/12/01 08:08:44;;;;;;;0.10;0.10;;;;;;;;;;5042444;28;20318;-71
2023/12/01 08:11:10;;;;;;;0.10;0.10;;;;;;;;;;5044321;28;20050;-71
2023/12/01 08:13:37;;;;;;;0.10;0.10;;;;;;;;;;5044750;28;20110;-71
2023/12/01 08:16:04;;;;;;;0.03;0.03;;;;;;;;;;5045624;28;20053;-71
2023/12/01 08:18:31;;;;;;;0.10;0.10;;;;;;;;;;5041589;28;20192;-72
2023/12/01 08:20:58;;;;;;;0.10;0.10;;;;;;;;;;5042068;28;20090;-71
2023/12/01 08:23:24;;;;;;;0.40;0.40;;;;;;;;;;5044053;28;20470;-71
2023/12/01 08:25:51;;;;;;;0.10;0.10;;;;;;;;;;5045795;28;20046;-71
2023/12/01 08:28:18;;;;;;;0.32;0.32;;;;;;;;;;5017556;28;20054;-72
2023/12/01 08:30:44;;;;;;;0.10;0.10;;;;;;;;;;5041609;28;20054;-72
2023/12/01 08:33:15;;;;;;;0.10;0.10;;;;;;;;;;5029022;28;20054;-71
2023/12/01 08:35:41;;;;;;;0.10;0.10;;;;;;;;;;5043572;28;20635;-72
2023/12/01 08:38:10;;;;;;;0.10;0.10;;;;;;;;;;5041321;28;20057;-71
2023/12/01 08:40:37;;;;;;;0.10;0.10;;;;;;;;;;5041532;28;20152;-71
2023/12/01 08:43:09;;;;;;;0.10;0.10;;;;;;;;;;5044811;28;20061;-71
2023/12/01 08:45:36;;;;;;;0.10;0.10;;;;;;;;;;5045097;28;20050;-71
2023/12/01 08:48:02;;;;;;;0.10;0.10;;;;;;;;;;5044437;28;20049;-71
2023/12/01 08:50:29;;;;;;;0.10;0.10;;;;;;;;;;5036882;28;20064;-71
2023/12/01 08:52:55;;;;;;;1.55;1.20;;;;;;;;;;5036362;28;20064;-71
2023/12/01 08:55:22;;;;;;;0.10;0.10;;;;;;;;;;5042052;28;20057;-71
2023/12/01 08:57:48;;;;;;;0.20;0.20;;;;;;;;;;5045155;28;20145;-71
2023/12/01 09:00:20;;;;;;;0.10;0.10;;;;;;;;;;5044048;28;20053;-71
2023/12/01 09:02:48;;;;;;;0.10;0.10;;;;;;;;;;5044117;28;20136;-72
2023/12/01 09:05:17;;;;;;;0.10;0.10;;;;;;;;;;5042500;28;20103;-71
2023/12/01 09:07:46;;;;;;;0.10;0.10;;;;;;;;;;5041207;28;20132;-71
2023/12/01 09:10:13;;;;;;;0.10;0.10;;;;;;;;;;5044509;28;20049;-72
2023/12/01 09:12:40;;;;;;;0.10;0.10;;;;;;;;;;5043207;28;20065;-72
2023/12/01 09:15:07;;;;;;;0.10;0.10;;;;;;;;;;5045762;28;20064;-71
2023/12/01 09:17:33;;;;;;;0.10;0.10;;;;;;;;;;5044504;28;20659;-71
2023/12/01 09:19:59;;;;;;;0.10;0.10;;;;;;;;;;5044319;28;20268;-72
2023/12/01 09:22:26;;;;;;;0.10;0.10;;;;;;;;;;5043414;28;20060;-72
2023/12/01 09:24:52;;;;;;;0.10;0.10;;;;;;;;;;5043494;28;20056;-72
2023/12/01 09:27:19;;;;;;;0.10;0.10;;;;;;;;;;5042722;28;20058;-72
2023/12/01 09:29:46;;;;;;;0.10;0.10;;;;;;;;;;5045954;28;20609;-72
2023/12/01 09:32:12;;;;;;;0.10;0.10;;;;;;;;;;5046812;28;20108;-72
2023/12/01 09:34:39;;;;;;;0.10;0.10;;;;;;;;;;5046560;28;20054;-72
2023/12/01 09:37:05;;;;;;;0.10;0.10;;;;;;;;;;5046519;28;20135;-72
2023/12/01 09:39:32;;;;;;;0.10;0.10;;;;;;;;;;5042405;28;20100;-72
2023/12/01 09:42:00;;;;;;;0.20;0.20;;;;;;;;;;5045690;28;20589;-72
2023/12/01 09:44:27;;;;;;;0.10;0.10;;;;;;;;;;5047726;28;20056;-72
2023/12/01 09:46:55;;;;;;;0.10;0.10;;;;;;;;;;5046523;28;20058;-72
2023/12/01 09:49:23;;;;;;;0.55;0.55;;;;;;;;;;5044669;28;20057;-72
2023/12/01 09:51:49;;;;;;;0.10;0.10;;;;;;;;;;5046074;28;20084;-72
2023/12/01 09:54:17;;;;;;;0.10;0.10;;;;;;;;;;5048433;28;20053;-72
2023/12/01 09:56:44;;;;;;;0.20;0.20;;;;;;;;;;5040415;28;20053;-72
2023/12/01 09:59:15;;;;;;;0.10;0.10;;;;;;;;;;5026050;28;20060;-72
2023/12/01 10:01:44;;;;;;;0.10;0.10;;;;;;;;;;5041535;28;20096;-72
2023/12/01 10:04:11;;;;;;;0.10;0.10;;;;;;;;;;5043513;28;20528;-72
2023/12/01 10:06:39;;;;;;;0.10;0.10;;;;;;;;;;5050537;28;20057;-72
2023/12/01 10:09:09;;;;;;;0.10;0.10;;;;;;;;;;5046031;28;20055;-72
2023/12/01 10:11:37;;;;;;;0.10;0.10;;;;;;;;;;5039267;28;20081;-73
2023/12/01 10:14:06;;;;;;;0.10;0.10;;;;;;;;;;5037325;28;20565;-72
2023/12/01 10:16:34;;;;;;;0.17;0.17;;;;;;;;;;5043495;28;20135;-72
2023/12/01 10:19:04;;;;;;;0.10;0.10;;;;;;;;;;5043199;28;20593;-72
2023/12/01 10:21:44;;;;;;;0.10;0.10;;;;;;;;;;5040134;28;20181;-73
2023/12/01 10:24:14;;;;;;;0.10;0.10;;;;;;;;;;5043591;28;20132;-72
2023/12/01 10:26:42;;;;;;;0.10;0.10;;;;;;;;;;5044875;28;20064;-72
2023/12/01 10:29:30;;;;;;;0.00;0.00;;;;;;;;;;5044490;28;20058;-72
2023/12/01 10:31:59;;;;;;;0.10;0.10;;;;;;;;;;5042059;28;20137;-72
2023/12/01 10:34:25;;;;;;;0.10;0.10;;;;;;;;;;5042834;28;20519;-72
2023/12/01 10:36:52;;;;;;;0.10;0.10;;;;;;;;;;5046104;28;20084;-72
2023/12/01 10:39:24;;;;;;;0.10;0.10;;;;;;;;;;5040216;28;20139;-72
2023/12/01 10:41:53;;;;;;;0.10;0.10;;;;;;;;;;5045288;28;20057;-72
2023/12/01 10:44:24;;;;;;;0.10;0.10;;;;;;;;;;5045459;28;20053;-72
2023/12/01 10:46:54;;;;;;;0.10;0.10;;;;;;;;;;5046894;28;20148;-71
2023/12/01 10:49:21;;;;;;;0.10;0.10;;;;;;;;;;5045718;28;20054;-72
2023/12/01 10:51:54;;;;;;;0.00;0.00;;;;;;;;;;5036331;28;20060;-72
2023/12/01 10:54:25;;;;;;;0.10;0.10;;;;;;;;;;5046398;28;20084;-72
2023/12/01 10:56:55;;;;;;;0.20;0.20;;;;;;;;;;5046407;28;20507;-72
2023/12/01 10:59:23;;;;;;;0.30;0.30;;;;;;;;;;5044814;28;20053;-72
2023/12/01 11:01:50;;;;;;;0.10;0.10;;;;;;;;;;5045536;28;20089;-72
2023/12/01 11:04:21;;;;;;;0.10;0.10;;;;;;;;;;5047116;28;20060;-71
2023/12/01 11:06:55;;;;;;;0.22;0.22;;;;;;;;;;5046570;28;20096;-71
2023/12/01 11:09:24;;;;;;;0.10;0.10;;;;;;;;;;5045775;28;20057;-72
2023/12/01 11:11:56;;;;;;;0.10;0.10;;;;;;;;;;5045831;28;20057;-71
2023/12/01 11:14:25;;;;;;;0.00;0.00;;;;;;;;;;5045672;28;20054;-71
2023/12/01 11:16:52;;;;;;;0.20;0.20;;;;;;;;;;5046490;28;20049;-71
2023/12/01 11:19:22;;;;;;;0.20;0.20;;;;;;;;;;5042480;28;20487;-72
2023/12/01 11:21:49;;;;;;;0.10;0.10;;;;;;;;;;5045229;28;20065;-72
2023/12/01 11:24:23;;;;;;;0.03;0.03;;;;;;;;;;5047040;28;20061;-72
2023/12/01 11:26:52;;;;;;;0.10;0.10;;;;;;;;;;5045809;28;20053;-71
2023/12/01 11:29:28;;;;;;;0.00;0.00;;;;;;;;;;5039432;28;20053;-71
2023/12/01 11:31:57;;;;;;;0.10;0.10;;;;;;;;;;5046236;28;20061;-71
2023/12/01 11:34:27;;;;;;;0.10;0.10;;;;;;;;;;5045140;28;20062;-71
2023/12/01 11:36:54;;;;;;;0.10;0.10;;;;;;;;;;5045524;28;20053;-71
2023/12/01 11:39:29;;;;;;;0.10;0.10;;;;;;;;;;5044403;28;20638;-71
2023/12/01 11:41:55;;;;;;;0.10;0.10;;;;;;;;;;5046885;28;20057;-72
2023/12/01 11:44:24;;;;;;;0.10;0.10;;;;;;;;;;5043061;28;20128;-71
2023/12/01 11:46:58;;;;;;;0.10;0.10;;;;;;;;;;5046322;28;20059;-71
2023/12/01 11:49:32;;;;;;;0.10;0.10;;;;;;;;;;5047212;28;20088;-71
2023/12/01 11:52:00;;;;;;;0.10;0.10;;;;;;;;;;5039779;28;20093;-71
2023/12/01 11:54:27;;;;;;;0.10;0.10;;;;;;;;;;5041308;28;20060;-71
2023/12/01 11:56:57;;;;;;;1.85;1.75;;;;;;;;;;5046344;28;20050;-72
2023/12/01 11:59:24;;;;;;;0.10;0.10;;;;;;;;;;5028151;28;20049;-71
2023/12/01 12:01:56;;;;;;;0.10;0.10;;;;;;;;;;5046304;28;20098;-71
2023/12/01 12:04:23;;;;;;;;;;;;;;;;;;5044090;28;20064;-71
2023/12/01 12:06:50;;;;;;;0.10;0.10;;;;;;;;;;5040868;28;43820;-71
2023/12/01 12:09:19;;;;;;;0.08;0.08;;;;;;;;;;5043077;28;20128;-71
2023/12/01 12:11:48;;;;;;;0.10;0.10;;;;;;;;;;5041727;28;20049;-71
2023/12/01 12:14:15;;;;;;;0.30;0.30;;;;;;;;;;5046334;28;20275;-71
2023/12/01 12:16:42;;;;;;;0.10;0.10;;;;;;;;;;5045649;28;20057;-71
2023/12/01 12:19:09;;;;;;;0.15;0.15;;;;;;;;;;5044924;28;20060;-71
2023/12/01 12:21:36;;;;;;;0.10;0.10;;;;;;;;;;5042974;28;20053;-71
2023/12/01 12:24:03;;;;;;;0.10;0.10;;;;;;;;;;5047182;28;20064;-71
2023/12/01 12:26:30;;;;;;;0.10;0.10;;;;;;;;;;5044337;28;20065;-71
2023/12/01 12:28:57;;;;;;;0.10;0.10;;;;;;;;;;5042972;28;20057;-71
2023/12/01 12:31:26;;;;;;;0.10;0.10;;;;;;;;;;5095343;23;20057;-76
2023/12/01 12:33:56;;;;;;;0.10;0.10;;;;;;;;;;5013301;28;21012;-76
2023/12/01 12:36:26;;;;;;;0.10;0.10;;;;;;;;;;5032750;28;20104;-73
2023/12/01 12:38:53;;;;;;;0.15;0.15;;;;;;;;;;5021578;28;20054;-76
2023/12/01 12:41:24;;;;;;;0.08;0.08;;;;;;;;;;5029846;28;20057;-76
2023/12/01 12:43:54;;;;;;;0.10;0.10;;;;;;;;;;5033449;28;20053;-76
2023/12/01 12:46:22;;;;;;;0.10;0.10;;;;;;;;;;5032622;28;20054;-76
2023/12/01 12:48:48;;;;;;;0.10;0.10;;;;;;;;;;5026926;28;20058;-75
2023/12/01 12:51:17;;;;;;;0.10;0.10;;;;;;;;;;5031440;28;20471;-75
2023/12/01 12:53:44;;;;;;;0.00;0.00;;;;;;;;;;5023833;28;20796;-73
2023/12/01 12:56:13;;;;;;;0.10;0.10;;;;;;;;;;5029092;28;20169;-75
2023/12/01 12:58:42;;;;;;;0.10;0.10;;;;;;;;;;5009305;28;20814;-76
2023/12/01 13:01:09;;;;;;;0.10;0.10;;;;;;;;;;5023397;28;20068;-73
2023/12/01 13:03:39;;;;;;;0.10;0.10;;;;;;;;;;5030812;28;20088;-76
2023/12/01 13:06:06;;;;;;;0.20;0.20;;;;;;;;;;5008941;28;20188;-76
2023/12/01 13:08:34;;;;;;;0.10;0.10;;;;;;;;;;5029569;28;20060;-76
2023/12/01 13:11:01;;;;;;;0.10;0.10;;;;;;;;;;5032476;28;20179;-75
2023/12/01 13:13:27;;;;;;;0.30;0.30;;;;;;;;;;5026405;28;20065;-77
2023/12/01 13:15:54;;;;;;;0.10;0.10;;;;;;;;;;5030230;28;20137;-76
2023/12/01 13:18:23;;;;;;;0.10;0.10;;;;;;;;;;5026469;28;20050;-76
2023/12/01 13:20:50;;;;;;;0.10;0.10;;;;;;;;;;5031012;28;20058;-75
2023/12/01 13:23:17;;;;;;;0.17;0.17;;;;;;;;;;5023448;28;20215;-74
2023/12/01 13:25:44;;;;;;;0.10;0.10;;;;;;;;;;5024449;28;20555;-75
2023/12/01 13:28:13;;;;;;;0.08;0.08;;;;;;;;;;5007467;28;20081;-76
2023/12/01 13:30:40;;;;;;;0.10;0.10;;;;;;;;;;5028903;28;20069;-76
2023/12/01 13:33:06;;;;;;;0.10;0.10;;;;;;;;;;5023753;28;20057;-76
2023/12/01 13:35:33;;;;;;;0.32;0.32;;;;;;;;;;5033845;28;20076;-74
2023/12/01 13:38:03;;;;;;;0.10;0.10;;;;;;;;;;5032807;28;20105;-76
2023/12/01 13:40:29;;;;;;;0.30;0.30;;;;;;;;;;5039560;28;20057;-73
2023/12/01 13:42:56;;;;;;;0.10;0.10;;;;;;;;;;5042340;28;20542;-75
2023/12/01 13:45:23;;;;;;;1.80;1.70;;;;;;;;;;5044616;28;20858;-76
2023/12/01 13:47:49;;;;;;;0.10;0.10;;;;;;;;;;5036348;28;20058;-73
2023/12/01 13:50:18;;;;;;;0.10;0.10;;;;;;;;;;5041328;28;20211;-74
2023/12/01 13:52:48;;;;;;;0.10;0.10;;;;;;;;;;5041384;28;20054;-75
2023/12/01 13:55:14;;;;;;;0.10;0.10;;;;;;;;;;5042656;28;20053;-74
2023/12/01 13:57:41;;;;;;;0.10;0.10;;;;;;;;;;5030052;28;20080;-75
2023/12/01 14:00:09;;;;;;;0.10;0.10;;;;;;;;;;5040776;28;20054;-75
2023/12/01 14:02:36;;;;;;;0.10;0.10;;;;;;;;;;5016454;28;20057;-75
2023/12/01 14:05:03;;;;;;;0.10;0.10;;;;;;;;;;5045305;28;20056;-75
2023/12/01 14:07:29;;;;;;;0.32;0.32;;;;;;;;;;5041295;28;20526;-77
2023/12/01 14:09:55;;;;;;;0.10;0.10;;;;;;;;;;5045534;28;20603;-76
2023/12/01 14:12:23;;;;;;;0.10;0.10;;;;;;;;;;5038411;28;20053;-76
2023/12/01 14:14:49;;;;;;;0.10;0.10;;;;;;;;;;5026557;28;20503;-76
2023/12/01 14:17:16;;;;;;;0.10;0.10;;;;;;;;;;5036073;28;20057;-76
2023/12/01 14:19:42;;;;;;;0.10;0.10;;;;;;;;;;5036063;28;20081;-76
2023/12/01 14:22:13;;;;;;;0.10;0.10;;;;;;;;;;5024666;28;20066;-75
2023/12/01 14:24:39;;;;;;;0.10;0.10;;;;;;;;;;5027190;28;20527;-76
2023/12/01 14:27:05;;;;;;;0.10;0.10;;;;;;;;;;5030915;28;20105;-72
2023/12/01 14:29:32;;;;;;;0.10;0.10;;;;;;;;;;5020528;28;20068;-75
2023/12/01 14:32:02;;;;;;;0.10;0.10;;;;;;;;;;5014513;28;20077;-76
2023/12/01 14:34:40;;;;;;;0.10;0.10;;;;;;;;;;5004173;28;20524;-75
2023/12/01 14:37:08;;;;;;;0.00;0.00;;;;;;;;;;5028966;28;20069;-76
2023/12/01 14:39:34;;;;;;;2.38;1.85;;;;;;;;;;5044092;28;20061;-74
2023/12/01 14:42:02;;;;;;;0.20;0.20;;;;;;;;;;5040605;28;20136;-75
2023/12/01 14:44:29;;;;;;;0.10;0.10;;;;;;;;;;5013642;28;20061;-76